Reading, Kansas
Current Conditions -  °F | °C
As of 3:53 PM on Tuesday 25 Nov 2014 (Local Time) from KEMP Reporting Station
Clear Clear  
Wind Chill: 41°   Ceiling: Unl
Heat Index: 47°   Visibility: 10mi
Dew Point: 22°   Wind: 13mph
Humidity: 37%   Direction: 200°SSW
Pressure: 30.07"   Gusts: NA
Location:  38.52°N, 95.96°W
Report Text: KEMP 252153Z AUTO 20011KT 10SM CLR 08/M06 A3007 RMK AO2 SLP194 T00831056
Loading
Personal Weather Stations






























Interactive Weather Map New forecast layout! Learn more

10-Day Weather Forecast

Advertisements
Track Severe Weather on mobile